Time;durP1;ratioP1;P1;durP2;ratioP2;P2;SDS_P1;SDS_P2;PMS_P1;PMS_P2;Temp;Humidity;BMP_temperature;BMP_pressure;BME280_temperature;BME280_humidity;BME280_pressure;Samples;Min_cycle;Max_cycle;Signal;HPM_P1;HPM_P2
2022/08/06 00:01:53;;;;;;;3.95;1.88;;;;;;;;;;5036141;28;20040;-65
2022/08/06 00:04:19;;;;;;;4.13;2.40;;;;;;;;;;5034557;28;20028;-64
2022/08/06 00:06:45;;;;;;;5.13;2.30;;;;;;;;;;5035757;28;20037;-65
2022/08/06 00:09:11;;;;;;;5.95;2.20;;;;;;;;;;5042806;28;20048;-64
2022/08/06 00:11:40;;;;;;;4.20;2.00;;;;;;;;;;5044571;28;20104;-64
2022/08/06 00:14:06;;;;;;;3.60;1.90;;;;;;;;;;5043994;28;20448;-64
2022/08/06 00:16:32;;;;;;;2.25;1.92;;;;;;;;;;5032748;28;20030;-64
2022/08/06 00:18:57;;;;;;;3.03;2.28;;;;;;;;;;5046654;28;20367;-65
2022/08/06 00:21:22;;;;;;;5.78;2.20;;;;;;;;;;5041792;28;20033;-65
2022/08/06 00:23:48;;;;;;;4.60;2.30;;;;;;;;;;5037009;28;20030;-66
2022/08/06 00:26:14;;;;;;;3.53;2.25;;;;;;;;;;5045972;28;20462;-65
2022/08/06 00:28:39;;;;;;;5.53;2.45;;;;;;;;;;5033757;28;20513;-65
2022/08/06 00:31:05;;;;;;;4.13;2.30;;;;;;;;;;5045011;28;20029;-64
2022/08/06 00:33:30;;;;;;;4.05;2.10;;;;;;;;;;5041140;28;20772;-64
2022/08/06 00:35:56;;;;;;;2.58;2.08;;;;;;;;;;5047140;28;20040;-65
2022/08/06 00:38:21;;;;;;;3.15;2.30;;;;;;;;;;5043585;28;20125;-65
2022/08/06 00:40:48;;;;;;;3.70;2.47;;;;;;;;;;5051707;28;20098;-66
2022/08/06 00:43:14;;;;;;;7.78;2.28;;;;;;;;;;5043048;28;20036;-65
2022/08/06 00:45:39;;;;;;;5.90;2.55;;;;;;;;;;5042716;28;20373;-66
2022/08/06 00:48:05;;;;;;;8.25;2.20;;;;;;;;;;5048554;28;20434;-65
2022/08/06 00:50:31;;;;;;;5.05;2.30;;;;;;;;;;5048344;28;20108;-65
2022/08/06 00:52:59;;;;;;;5.88;2.67;;;;;;;;;;5051414;28;20162;-65
2022/08/06 00:55:24;;;;;;;4.18;2.30;;;;;;;;;;5039964;28;20405;-65
2022/08/06 00:57:50;;;;;;;4.00;2.30;;;;;;;;;;5033259;28;20060;-65
2022/08/06 01:00:15;;;;;;;4.85;2.55;;;;;;;;;;5043226;28;20083;-65
2022/08/06 01:02:41;;;;;;;4.90;2.38;;;;;;;;;;5040792;28;20112;-64
2022/08/06 01:05:06;;;;;;;4.88;2.30;;;;;;;;;;5032841;28;20041;-65
2022/08/06 01:07:32;;;;;;;3.17;2.08;;;;;;;;;;5040929;28;20041;-65
2022/08/06 01:09:57;;;;;;;4.82;2.50;;;;;;;;;;5045466;28;20036;-65
2022/08/06 01:12:23;;;;;;;4.20;2.47;;;;;;;;;;5051960;28;20035;-64
2022/08/06 01:14:48;;;;;;;5.47;2.70;;;;;;;;;;5032840;28;20036;-65
2022/08/06 01:17:33;;;;;;;4.53;2.60;;;;;;;;;;5041632;28;20064;-65
2022/08/06 01:20:01;;;;;;;5.32;2.80;;;;;;;;;;5044712;28;20037;-67
2022/08/06 01:22:56;;;;;;;5.38;2.70;;;;;;;;;;5031285;28;20083;-66
2022/08/06 01:25:46;;;;;;;5.57;2.85;;;;;;;;;;5045191;28;20055;-65
2022/08/06 01:28:26;;;;;;;5.55;3.10;;;;;;;;;;5029438;28;20037;-64
2022/08/06 01:30:57;;;;;;;7.65;3.33;;;;;;;;;;5033893;28;20029;-64
2022/08/06 01:33:22;;;;;;;;;;;;;;;;;;5039678;28;20545;-64
2022/08/06 01:35:52;;;;;;;6.10;3.30;;;;;;;;;;5042683;28;20055;-64
2022/08/06 01:38:32;;;;;;;4.57;3.00;;;;;;;;;;5046886;28;20044;-64
2022/08/06 01:41:01;;;;;;;5.23;3.07;;;;;;;;;;5042181;28;20026;-64
2022/08/06 01:43:29;;;;;;;9.80;3.45;;;;;;;;;;5047375;28;20049;-65
2022/08/06 01:45:56;;;;;;;10.20;3.53;;;;;;;;;;5036483;28;20121;-64
2022/08/06 01:48:25;;;;;;;5.35;3.42;;;;;;;;;;5049624;28;20060;-66
2022/08/06 01:50:54;;;;;;;6.57;3.50;;;;;;;;;;5038613;28;20048;-64
2022/08/06 01:53:25;;;;;;;7.97;3.22;;;;;;;;;;5031716;28;20067;-64
2022/08/06 01:55:53;;;;;;;4.38;3.30;;;;;;;;;;5040159;28;20065;-65
2022/08/06 01:58:24;;;;;;;5.82;3.20;;;;;;;;;;5049171;28;20048;-65
2022/08/06 02:00:51;;;;;;;6.53;3.30;;;;;;;;;;5050042;28;20031;-64
2022/08/06 02:03:35;;;;;;;7.60;3.45;;;;;;;;;;5049514;28;20037;-65
2022/08/06 02:06:01;;;;;;;5.28;3.28;;;;;;;;;;5050499;28;20078;-65
2022/08/06 02:08:31;;;;;;;6.35;3.17;;;;;;;;;;5048164;28;20039;-65
2022/08/06 02:11:00;;;;;;;7.13;3.50;;;;;;;;;;5033947;28;20072;-66
2022/08/06 02:13:28;;;;;;;6.38;3.30;;;;;;;;;;5050684;28;20481;-65
2022/08/06 02:15:55;;;;;;;7.20;3.25;;;;;;;;;;5032940;28;20112;-65
2022/08/06 02:18:22;;;;;;;6.00;3.30;;;;;;;;;;5032171;28;20054;-65
2022/08/06 02:20:52;;;;;;;9.02;3.20;;;;;;;;;;5051189;28;20446;-64
2022/08/06 02:23:22;;;;;;;7.75;3.70;;;;;;;;;;5035430;28;20037;-65
2022/08/06 02:25:51;;;;;;;7.47;3.25;;;;;;;;;;5044468;28;20095;-65
2022/08/06 02:28:19;;;;;;;5.70;2.97;;;;;;;;;;5039585;28;20470;-65
2022/08/06 02:30:47;;;;;;;9.02;3.30;;;;;;;;;;5033363;28;20293;-65
2022/08/06 02:33:13;;;;;;;7.80;3.20;;;;;;;;;;5040820;28;20029;-64
2022/08/06 02:35:50;;;;;;;7.85;3.47;;;;;;;;;;5042000;28;20116;-64
2022/08/06 02:38:23;;;;;;;6.35;3.25;;;;;;;;;;5049629;28;20410;-66
2022/08/06 02:40:56;;;;;;;8.25;3.63;;;;;;;;;;5051805;28;20490;-67
2022/08/06 02:43:33;;;;;;;6.30;3.20;;;;;;;;;;5030993;28;20033;-66
2022/08/06 02:46:13;;;;;;;4.97;3.03;;;;;;;;;;5038934;28;20068;-66
2022/08/06 02:48:52;;;;;;;5.00;3.08;;;;;;;;;;5028186;28;20652;-65
2022/08/06 02:51:24;;;;;;;6.50;3.30;;;;;;;;;;5031107;28;20462;-66
2022/08/06 02:54:06;;;;;;;7.65;3.30;;;;;;;;;;5036127;28;20525;-65
2022/08/06 02:56:35;;;;;;;5.32;3.53;;;;;;;;;;5050521;28;20044;-66
2022/08/06 02:59:02;;;;;;;6.35;3.30;;;;;;;;;;5034510;28;20038;-66
2022/08/06 03:01:34;;;;;;;4.65;3.42;;;;;;;;;;5031360;28;20421;-65
2022/08/06 03:04:01;;;;;;;10.45;4.53;;;;;;;;;;5043039;28;20035;-66
2022/08/06 03:06:31;;;;;;;5.72;3.58;;;;;;;;;;5045003;28;20041;-66
2022/08/06 03:08:58;;;;;;;7.68;3.85;;;;;;;;;;5042723;28;20124;-66
2022/08/06 03:11:25;;;;;;;6.00;3.80;;;;;;;;;;5028148;28;20033;-66
2022/08/06 03:13:53;;;;;;;9.13;3.67;;;;;;;;;;5035630;28;20064;-65
2022/08/06 03:16:19;;;;;;;5.90;3.58;;;;;;;;;;5036519;28;20041;-65
2022/08/06 03:18:46;;;;;;;5.57;3.50;;;;;;;;;;5041688;28;20045;-66
2022/08/06 03:21:12;;;;;;;6.45;3.47;;;;;;;;;;5050733;28;20046;-65
2022/08/06 03:23:39;;;;;;;7.10;3.90;;;;;;;;;;5055921;28;20218;-64
2022/08/06 03:26:06;;;;;;;5.72;4.20;;;;;;;;;;5036210;28;20043;-64
2022/08/06 03:28:34;;;;;;;9.23;4.20;;;;;;;;;;5055580;28;20488;-65
2022/08/06 03:31:01;;;;;;;7.60;4.15;;;;;;;;;;5051685;28;20056;-66
2022/08/06 03:33:27;;;;;;;8.77;3.83;;;;;;;;;;5055940;28;20033;-66
2022/08/06 03:35:54;;;;;;;5.82;4.05;;;;;;;;;;5053856;28;20036;-66
2022/08/06 03:38:21;;;;;;;7.20;4.25;;;;;;;;;;5049565;28;20028;-65
2022/08/06 03:40:48;;;;;;;7.38;4.40;;;;;;;;;;5043439;28;20040;-65
2022/08/06 03:43:14;;;;;;;7.30;4.28;;;;;;;;;;5052754;28;20037;-66
2022/08/06 03:45:48;;;;;;;8.73;4.40;;;;;;;;;;5035827;28;20204;-65
2022/08/06 03:48:16;;;;;;;7.95;4.13;;;;;;;;;;5053220;28;20033;-65
2022/08/06 03:50:44;;;;;;;7.50;4.50;;;;;;;;;;5052573;28;20020;-65
2022/08/06 03:53:17;;;;;;;8.85;4.50;;;;;;;;;;5037473;28;20036;-67
2022/08/06 03:55:44;;;;;;;8.50;4.30;;;;;;;;;;5041276;28;20041;-66
2022/08/06 03:58:12;;;;;;;7.97;4.97;;;;;;;;;;5038952;28;20111;-67
2022/08/06 04:00:46;;;;;;;32.25;8.23;;;;;;;;;;5054753;28;20115;-65
2022/08/06 04:03:13;;;;;;;6.50;4.22;;;;;;;;;;5049763;28;20116;-65
2022/08/06 04:05:41;;;;;;;6.75;4.45;;;;;;;;;;5053980;28;20043;-65
2022/08/06 04:08:09;;;;;;;6.30;4.07;;;;;;;;;;5043188;28;20123;-65
2022/08/06 04:10:43;;;;;;;9.75;4.28;;;;;;;;;;5040304;28;20033;-65
2022/08/06 04:13:13;;;;;;;5.95;4.00;;;;;;;;;;5046780;28;20109;-65
2022/08/06 04:15:40;;;;;;;6.72;4.30;;;;;;;;;;5040171;28;20040;-65
2022/08/06 04:18:15;;;;;;;8.93;4.20;;;;;;;;;;5041619;28;20029;-64
2022/08/06 04:20:43;;;;;;;9.13;4.63;;;;;;;;;;5052016;28;20926;-65
2022/08/06 04:23:10;;;;;;;9.38;5.75;;;;;;;;;;5045672;28;20041;-65
2022/08/06 04:25:42;;;;;;;9.32;5.18;;;;;;;;;;5053278;28;20472;-65
2022/08/06 04:28:09;;;;;;;9.13;4.60;;;;;;;;;;5052054;28;20044;-66
2022/08/06 04:30:35;;;;;;;6.50;4.65;;;;;;;;;;5048388;28;20033;-65
2022/08/06 04:33:06;;;;;;;8.27;4.55;;;;;;;;;;5015635;28;20030;-65
2022/08/06 04:35:31;;;;;;;9.02;4.57;;;;;;;;;;5037394;28;20044;-65
2022/08/06 04:37:58;;;;;;;7.55;4.40;;;;;;;;;;5035703;28;20386;-65
2022/08/06 04:40:25;;;;;;;6.63;4.30;;;;;;;;;;5045631;28;20044;-65
2022/08/06 04:42:51;;;;;;;6.20;4.47;;;;;;;;;;5033613;28;20041;-65
2022/08/06 04:45:17;;;;;;;8.50;4.35;;;;;;;;;;5045011;28;20033;-65
2022/08/06 04:47:43;;;;;;;9.45;4.57;;;;;;;;;;5051243;28;20648;-67
2022/08/06 04:50:10;;;;;;;9.77;4.53;;;;;;;;;;5040647;28;20040;-64
2022/08/06 04:52:36;;;;;;;10.43;4.57;;;;;;;;;;5051990;28;20108;-65
2022/08/06 04:55:02;;;;;;;10.82;4.93;;;;;;;;;;5052134;28;20526;-65
2022/08/06 04:57:27;;;;;;;13.27;5.03;;;;;;;;;;5043271;28;20121;-64
2022/08/06 04:59:53;;;;;;;11.52;4.90;;;;;;;;;;5027984;28;20062;-65
2022/08/06 05:02:18;;;;;;;7.30;4.20;;;;;;;;;;5034063;28;20063;-66
2022/08/06 05:04:44;;;;;;;9.68;4.95;;;;;;;;;;5042886;28;20036;-65
2022/08/06 05:07:20;;;;;;;12.65;4.38;;;;;;;;;;5043578;28;20087;-65
2022/08/06 05:09:46;;;;;;;6.90;4.70;;;;;;;;;;5039615;28;20082;-65
2022/08/06 05:12:27;;;;;;;15.05;5.35;;;;;;;;;;5036631;28;20509;-65
2022/08/06 05:15:15;;;;;;;7.38;4.18;;;;;;;;;;5039723;28;20075;-66
2022/08/06 05:17:45;;;;;;;6.53;4.10;;;;;;;;;;5050826;28;20036;-65
2022/08/06 05:20:15;;;;;;;7.90;4.63;;;;;;;;;;5036250;28;20061;-64
2022/08/06 05:22:42;;;;;;;9.80;4.20;;;;;;;;;;5038246;28;20040;-65
2022/08/06 05:25:08;;;;;;;7.38;4.40;;;;;;;;;;5037208;28;20080;-65
2022/08/06 05:27:33;;;;;;;8.73;4.40;;;;;;;;;;5050879;28;20033;-65
2022/08/06 05:30:01;;;;;;;10.77;5.43;;;;;;;;;;5040591;28;20394;-65
2022/08/06 05:32:26;;;;;;;5.65;4.05;;;;;;;;;;5032548;28;20030;-64
2022/08/06 05:34:52;;;;;;;7.35;4.22;;;;;;;;;;5032726;28;20532;-65
2022/08/06 05:37:17;;;;;;;7.40;5.00;;;;;;;;;;5035902;28;20052;-65
2022/08/06 05:39:43;;;;;;;8.63;4.63;;;;;;;;;;5032061;28;20462;-66
2022/08/06 05:42:08;;;;;;;10.60;4.43;;;;;;;;;;5047757;28;20090;-63
2022/08/06 05:44:34;;;;;;;8.13;4.43;;;;;;;;;;5049794;28;20032;-64
2022/08/06 05:47:14;;;;;;;9.48;4.30;;;;;;;;;;5033327;28;20029;-63
2022/08/06 05:49:46;;;;;;;8.95;4.05;;;;;;;;;;5051184;28;20051;-62
2022/08/06 05:52:44;;;;;;;9.20;4.40;;;;;;;;;;5036558;28;20125;-63
2022/08/06 05:55:30;;;;;;;7.60;4.32;;;;;;;;;;5009273;28;20103;-62
2022/08/06 05:58:10;;;;;;;6.70;3.92;;;;;;;;;;5032087;28;20049;-63
2022/08/06 06:00:37;;;;;;;7.72;4.03;;;;;;;;;;5031809;28;21028;-64
2022/08/06 06:03:04;;;;;;;6.30;3.70;;;;;;;;;;5037232;28;20036;-63
2022/08/06 06:05:31;;;;;;;8.30;3.20;;;;;;;;;;5047821;28;20036;-64
2022/08/06 06:07:56;;;;;;;8.10;3.40;;;;;;;;;;5047564;28;20029;-63
2022/08/06 06:10:26;;;;;;;5.15;3.00;;;;;;;;;;5033724;28;20033;-63
2022/08/06 06:12:53;;;;;;;5.78;2.95;;;;;;;;;;5051479;28;20040;-63
2022/08/06 06:15:19;;;;;;;3.38;2.40;;;;;;;;;;5038446;28;20049;-62
2022/08/06 06:18:05;;;;;;;4.72;2.22;;;;;;;;;;5031538;28;20040;-63
2022/08/06 06:20:49;;;;;;;5.03;2.38;;;;;;;;;;5036051;28;20037;-62
2022/08/06 06:23:31;;;;;;;5.22;1.83;;;;;;;;;;5052481;28;20473;-62
2022/08/06 06:26:02;;;;;;;5.85;2.10;;;;;;;;;;5042509;28;20061;-61
2022/08/06 06:28:53;;;;;;;3.50;2.03;;;;;;;;;;5044929;28;20095;-62
2022/08/06 06:31:44;;;;;;;6.80;2.20;;;;;;;;;;5038885;28;20108;-62
2022/08/06 06:34:13;;;;;;;;;;;;;;;;;;5037587;28;20480;-61
2022/08/06 06:36:49;;;;;;;5.70;2.30;;;;;;;;;;5031341;28;19912;-63
2022/08/06 06:39:38;;;;;;;4.97;1.98;;;;;;;;;;5032255;28;20042;-62
2022/08/06 06:42:10;;;;;;;5.45;1.80;;;;;;;;;;5032971;28;20541;-62
2022/08/06 06:44:40;;;;;;;2.33;1.70;;;;;;;;;;5039792;28;20037;-62
2022/08/06 06:47:42;;;;;;;3.70;2.00;;;;;;;;;;5044603;28;20032;-61
2022/08/06 06:50:16;;;;;;;2.75;1.80;;;;;;;;;;5024340;28;20366;-61
2022/08/06 06:52:44;;;;;;;3.15;1.60;;;;;;;;;;5031385;28;20484;-62
2022/08/06 06:55:20;;;;;;;5.00;1.70;;;;;;;;;;5033545;28;20060;-62
2022/08/06 06:57:58;;;;;;;3.00;1.58;;;;;;;;;;5043192;28;20107;-62
2022/08/06 07:00:24;;;;;;;3.10;1.80;;;;;;;;;;5051959;28;20044;-62
2022/08/06 07:02:52;;;;;;;3.83;1.63;;;;;;;;;;5035540;28;20030;-62
2022/08/06 07:05:23;;;;;;;5.65;1.60;;;;;;;;;;5031632;28;20057;-63
2022/08/06 07:07:50;;;;;;;4.78;1.40;;;;;;;;;;5030648;28;20037;-63
2022/08/06 07:10:19;;;;;;;3.15;1.48;;;;;;;;;;5031232;28;20453;-63
2022/08/06 07:12:47;;;;;;;4.20;1.45;;;;;;;;;;5038874;28;20033;-62
2022/08/06 07:15:15;;;;;;;4.75;1.60;;;;;;;;;;5033758;28;20091;-62
2022/08/06 07:17:41;;;;;;;4.47;1.10;;;;;;;;;;5039299;28;20094;-63
2022/08/06 07:20:10;;;;;;;4.68;1.38;;;;;;;;;;5048298;28;20034;-61
2022/08/06 07:22:41;;;;;;;3.13;1.20;;;;;;;;;;5044091;28;20040;-62
2022/08/06 07:25:07;;;;;;;4.05;1.33;;;;;;;;;;5046785;28;20037;-61
2022/08/06 07:27:35;;;;;;;4.30;1.73;;;;;;;;;;5050479;28;20033;-64
2022/08/06 07:30:02;;;;;;;4.60;1.20;;;;;;;;;;5029483;28;20072;-62
2022/08/06 07:32:29;;;;;;;3.08;1.30;;;;;;;;;;5031456;28;20477;-62
2022/08/06 07:34:55;;;;;;;1.58;1.10;;;;;;;;;;5033746;28;20500;-62
2022/08/06 07:37:21;;;;;;;1.67;1.10;;;;;;;;;;5035661;28;20065;-62
2022/08/06 07:39:49;;;;;;;3.80;1.10;;;;;;;;;;5044369;28;20056;-62
2022/08/06 07:42:16;;;;;;;3.03;1.23;;;;;;;;;;5050711;28;20088;-64
2022/08/06 07:44:49;;;;;;;1.90;1.20;;;;;;;;;;5030716;28;20052;-62
2022/08/06 07:47:21;;;;;;;3.95;1.35;;;;;;;;;;5031456;28;20033;-62
2022/08/06 07:49:51;;;;;;;4.80;1.30;;;;;;;;;;5030149;28;20052;-63
2022/08/06 07:52:18;;;;;;;4.28;1.13;;;;;;;;;;5050639;28;20025;-62
2022/08/06 07:54:44;;;;;;;2.47;0.90;;;;;;;;;;5029620;28;20037;-63
2022/08/06 07:57:10;;;;;;;2.40;1.20;;;;;;;;;;5031330;28;20060;-62
2022/08/06 07:59:36;;;;;;;2.90;1.05;;;;;;;;;;5029953;28;20040;-62
2022/08/06 08:02:03;;;;;;;1.92;0.90;;;;;;;;;;5030907;28;20109;-63
2022/08/06 08:07:15;;;;;;;4.20;1.15;;;;;;;;;;5047840;28;20132;-62
2022/08/06 08:09:43;;;;;;;3.35;1.10;;;;;;;;;;5044557;28;20552;-63
2022/08/06 08:12:13;;;;;;;2.00;0.90;;;;;;;;;;5033651;28;20041;-62
2022/08/06 08:14:39;;;;;;;1.10;1.00;;;;;;;;;;5050395;28;20070;-62
2022/08/06 08:17:05;;;;;;;1.65;0.90;;;;;;;;;;5035777;28;20032;-62
2022/08/06 08:19:34;;;;;;;1.33;0.90;;;;;;;;;;5038862;28;20112;-63
2022/08/06 08:22:05;;;;;;;2.20;0.90;;;;;;;;;;5047021;28;20029;-62
2022/08/06 08:24:33;;;;;;;1.85;0.90;;;;;;;;;;5027921;28;20034;-62
2022/08/06 08:27:00;;;;;;;1.73;0.70;;;;;;;;;;5034682;28;20120;-62
2022/08/06 08:29:26;;;;;;;1.23;0.70;;;;;;;;;;5037281;28;20084;-62
2022/08/06 08:31:54;;;;;;;0.75;0.68;;;;;;;;;;5053689;28;20029;-62
2022/08/06 08:34:20;;;;;;;1.38;0.70;;;;;;;;;;5036117;28;20120;-62
2022/08/06 08:36:45;;;;;;;1.30;0.60;;;;;;;;;;5032915;28;20462;-62
2022/08/06 08:39:11;;;;;;;1.77;0.70;;;;;;;;;;5043811;28;20086;-62
2022/08/06 08:41:41;;;;;;;1.85;0.63;;;;;;;;;;5046867;28;20053;-63
2022/08/06 08:44:08;;;;;;;0.70;0.60;;;;;;;;;;5043596;28;20029;-62
2022/08/06 08:46:41;;;;;;;3.10;0.88;;;;;;;;;;5054159;28;20032;-63
2022/08/06 08:49:18;;;;;;;0.73;0.52;;;;;;;;;;5044527;28;20033;-63
2022/08/06 08:51:45;;;;;;;0.60;0.60;;;;;;;;;;5031492;28;20057;-62
2022/08/06 08:54:15;;;;;;;1.23;0.70;;;;;;;;;;5033197;28;20091;-62
2022/08/06 08:56:40;;;;;;;1.43;0.50;;;;;;;;;;5032364;28;20053;-63
2022/08/06 08:59:06;;;;;;;0.75;0.57;;;;;;;;;;5036057;28;20477;-63
2022/08/06 09:01:33;;;;;;;1.15;0.70;;;;;;;;;;5034682;28;20026;-61
2022/08/06 09:04:02;;;;;;;2.40;0.55;;;;;;;;;;5033950;28;20064;-62
2022/08/06 09:06:28;;;;;;;1.10;0.65;;;;;;;;;;5041109;28;20420;-63
2022/08/06 09:08:55;;;;;;;1.50;0.80;;;;;;;;;;5045413;28;20067;-62
2022/08/06 09:11:22;;;;;;;1.58;0.60;;;;;;;;;;5045896;28;20029;-62
2022/08/06 09:13:47;;;;;;;2.45;0.80;;;;;;;;;;5033396;28;20038;-62
2022/08/06 09:16:13;;;;;;;2.03;0.80;;;;;;;;;;5046639;28;20041;-62
2022/08/06 09:18:39;;;;;;;2.38;0.90;;;;;;;;;;5023240;28;20343;-62
2022/08/06 09:21:04;;;;;;;0.60;0.60;;;;;;;;;;5033123;28;20455;-61
2022/08/06 09:23:30;;;;;;;2.08;0.90;;;;;;;;;;5020198;28;20320;-62
2022/08/06 09:25:56;;;;;;;2.58;0.95;;;;;;;;;;5031969;28;20908;-61
2022/08/06 09:28:41;;;;;;;1.30;0.63;;;;;;;;;;5036018;28;20038;-62
2022/08/06 09:31:14;;;;;;;1.00;0.60;;;;;;;;;;5042656;28;20151;-62
2022/08/06 09:33:42;;;;;;;4.75;0.82;;;;;;;;;;5043163;28;20036;-63
2022/08/06 09:36:13;;;;;;;1.83;0.70;;;;;;;;;;5053006;28;20091;-62
2022/08/06 09:38:50;;;;;;;1.70;0.70;;;;;;;;;;5048532;28;20037;-63
2022/08/06 09:41:17;;;;;;;0.82;0.50;;;;;;;;;;5052797;28;20495;-62
2022/08/06 09:43:45;;;;;;;5.35;0.95;;;;;;;;;;5043316;28;20492;-62
2022/08/06 09:46:11;;;;;;;2.22;0.90;;;;;;;;;;5032987;28;20059;-62
2022/08/06 09:48:36;;;;;;;2.03;0.80;;;;;;;;;;5043422;28;20120;-62
2022/08/06 09:51:02;;;;;;;1.90;0.60;;;;;;;;;;5052083;28;20493;-62
2022/08/06 09:53:28;;;;;;;1.02;0.70;;;;;;;;;;5051772;28;20116;-62
2022/08/06 09:55:56;;;;;;;1.30;0.65;;;;;;;;;;5051893;28;20119;-60
2022/08/06 09:58:32;;;;;;;0.85;0.60;;;;;;;;;;5046980;28;20540;-61
2022/08/06 10:01:11;;;;;;;0.75;0.68;;;;;;;;;;5031753;28;20064;-62
2022/08/06 10:03:40;;;;;;;1.25;0.85;;;;;;;;;;5032492;28;20033;-62
2022/08/06 10:06:13;;;;;;;2.00;0.80;;;;;;;;;;5040035;28;20236;-62
2022/08/06 10:08:39;;;;;;;0.82;0.55;;;;;;;;;;5034065;28;20033;-62
2022/08/06 10:11:05;;;;;;;0.60;0.60;;;;;;;;;;5042327;28;20059;-62
2022/08/06 10:13:32;;;;;;;2.25;0.82;;;;;;;;;;5032455;28;20029;-61
2022/08/06 10:16:00;;;;;;;1.55;0.70;;;;;;;;;;5030696;28;20366;-62
2022/08/06 10:18:55;;;;;;;2.83;0.95;;;;;;;;;;5039386;28;20044;-61
2022/08/06 10:21:22;;;;;;;1.58;0.60;;;;;;;;;;5040002;28;20509;-61
2022/08/06 10:23:53;;;;;;;1.45;0.80;;;;;;;;;;5031157;28;20481;-62
2022/08/06 10:26:24;;;;;;;;;;;;;;;;;;5032510;28;20033;-60
2022/08/06 10:28:51;;;;;;;1.02;0.60;;;;;;;;;;5030605;28;20300;-62
2022/08/06 10:31:17;;;;;;;2.08;0.70;;;;;;;;;;5038232;28;20087;-62
2022/08/06 10:34:16;;;;;;;1.10;0.52;;;;;;;;;;5044336;28;20140;-62
2022/08/06 10:37:02;;;;;;;3.15;0.80;;;;;;;;;;5040863;28;20047;-61
2022/08/06 10:39:33;;;;;;;0.73;0.55;;;;;;;;;;5047207;28;20032;-61
2022/08/06 10:42:00;;;;;;;1.17;0.60;;;;;;;;;;5031474;28;20060;-62
2022/08/06 10:44:26;;;;;;;2.15;1.10;;;;;;;;;;5029173;28;20041;-61
2022/08/06 10:46:52;;;;;;;8.73;0.70;;;;;;;;;;5047068;28;20047;-62
2022/08/06 10:49:21;;;;;;;1.77;0.75;;;;;;;;;;5047607;28;20025;-61
2022/08/06 10:51:51;;;;;;;1.95;0.70;;;;;;;;;;5043166;28;20039;-62
2022/08/06 10:54:17;;;;;;;1.77;0.77;;;;;;;;;;5044900;28;20036;-61
2022/08/06 10:56:45;;;;;;;0.77;0.50;;;;;;;;;;5035379;28;20560;-61
2022/08/06 10:59:13;;;;;;;2.28;0.60;;;;;;;;;;5013468;28;20512;-61
2022/08/06 11:02:00;;;;;;;2.00;0.68;;;;;;;;;;5034959;28;20373;-61
2022/08/06 11:04:50;;;;;;;1.13;0.52;;;;;;;;;;5032072;28;20037;-62
2022/08/06 11:08:09;;;;;;;1.40;0.80;;;;;;;;;;5041674;28;20029;-62
2022/08/06 11:10:46;;;;;;;1.52;0.70;;;;;;;;;;5000030;28;20037;-62
2022/08/06 11:13:56;;;;;;;0.65;0.60;;;;;;;;;;5025394;28;20513;-61
2022/08/06 11:16:27;;;;;;;0.70;0.60;;;;;;;;;;5021369;28;20044;-63
2022/08/06 11:19:10;;;;;;;0.40;0.40;;;;;;;;;;5040324;28;20026;-62
2022/08/06 11:21:42;;;;;;;1.90;0.80;;;;;;;;;;5045190;28;20104;-62
2022/08/06 11:24:08;;;;;;;1.40;0.63;;;;;;;;;;5044955;28;20044;-62
2022/08/06 11:26:36;;;;;;;1.70;0.63;;;;;;;;;;5051114;28;20029;-62
2022/08/06 11:29:03;;;;;;;2.47;0.55;;;;;;;;;;5031584;28;20466;-62
2022/08/06 11:31:37;;;;;;;1.67;0.57;;;;;;;;;;5040780;28;20037;-62
2022/08/06 11:34:05;;;;;;;0.73;0.50;;;;;;;;;;5036537;28;20045;-61
2022/08/06 11:36:59;;;;;;;1.25;0.55;;;;;;;;;;5046584;28;20432;-61
2022/08/06 11:39:27;;;;;;;0.98;0.68;;;;;;;;;;5043812;28;20036;-61
2022/08/06 11:41:55;;;;;;;2.10;0.80;;;;;;;;;;5053843;28;20466;-61
2022/08/06 11:44:32;;;;;;;0.60;0.60;;;;;;;;;;5046413;28;20091;-61
2022/08/06 11:47:12;;;;;;;1.70;0.80;;;;;;;;;;5033406;28;20040;-61
2022/08/06 11:49:42;;;;;;;;;;;;;;;;;;5048734;28;20035;-61
2022/08/06 11:52:08;;;;;;;1.30;0.60;;;;;;;;;;5054458;28;19912;-60
2022/08/06 11:54:36;;;;;;;1.05;0.65;;;;;;;;;;5052001;28;20063;-61
2022/08/06 11:57:01;;;;;;;2.08;0.57;;;;;;;;;;5036671;28;20095;-61
2022/08/06 11:59:35;;;;;;;2.70;0.80;;;;;;;;;;5035154;28;20029;-61
2022/08/06 12:02:03;;;;;;;1.10;0.60;;;;;;;;;;5048207;28;20086;-61
2022/08/06 12:04:34;;;;;;;1.00;0.63;;;;;;;;;;5055056;28;20037;-60
2022/08/06 12:07:22;;;;;;;1.02;0.82;;;;;;;;;;5049766;28;20040;-60
2022/08/06 12:10:06;;;;;;;2.20;0.70;;;;;;;;;;5053761;28;20420;-62
2022/08/06 12:12:40;;;;;;;2.08;0.95;;;;;;;;;;5036388;28;20111;-61
2022/08/06 12:15:11;;;;;;;3.90;0.80;;;;;;;;;;5032968;28;20037;-61
2022/08/06 12:17:37;;;;;;;1.95;0.98;;;;;;;;;;5034400;28;20042;-60
2022/08/06 12:20:03;;;;;;;0.57;0.47;;;;;;;;;;5033649;28;20041;-61
2022/08/06 12:22:31;;;;;;;0.65;0.60;;;;;;;;;;5035468;28;20026;-60
2022/08/06 12:24:58;;;;;;;0.65;0.65;;;;;;;;;;5033462;28;20070;-60
2022/08/06 12:27:31;;;;;;;0.90;0.50;;;;;;;;;;5034825;28;20033;-60
2022/08/06 12:29:57;;;;;;;0.90;0.80;;;;;;;;;;5015847;28;20040;-61
2022/08/06 12:32:28;;;;;;;0.80;0.60;;;;;;;;;;5054636;28;20032;-60
2022/08/06 12:34:56;;;;;;;1.27;0.60;;;;;;;;;;5053730;28;20127;-62
2022/08/06 12:37:39;;;;;;;1.45;0.50;;;;;;;;;;5045204;28;20417;-61
2022/08/06 12:40:29;;;;;;;1.35;0.60;;;;;;;;;;5048741;28;20390;-61
2022/08/06 12:43:00;;;;;;;1.73;0.60;;;;;;;;;;5033187;28;20102;-61
2022/08/06 12:45:28;;;;;;;0.70;0.50;;;;;;;;;;5035384;28;20508;-61
2022/08/06 12:47:57;;;;;;;0.50;0.50;;;;;;;;;;5035858;28;20032;-61
2022/08/06 12:50:23;;;;;;;1.35;0.75;;;;;;;;;;5047282;28;20117;-61
2022/08/06 12:53:05;;;;;;;1.17;0.70;;;;;;;;;;5052064;28;20040;-63
2022/08/06 12:55:48;;;;;;;3.35;0.80;;;;;;;;;;5029709;28;20029;-60
2022/08/06 12:58:19;;;;;;;1.00;0.55;;;;;;;;;;5041645;28;20044;-61
2022/08/06 13:00:50;;;;;;;1.85;0.70;;;;;;;;;;5048765;28;20025;-63
2022/08/06 13:03:18;;;;;;;1.80;0.70;;;;;;;;;;5042099;28;20103;-63
2022/08/06 13:05:44;;;;;;;1.55;0.55;;;;;;;;;;5038833;28;20120;-63
2022/08/06 13:08:10;;;;;;;1.88;0.50;;;;;;;;;;5046016;28;20025;-63
2022/08/06 13:10:36;;;;;;;1.55;0.60;;;;;;;;;;5051438;28;20059;-62
2022/08/06 13:13:04;;;;;;;1.00;0.68;;;;;;;;;;5034326;28;20508;-62
2022/08/06 13:15:31;;;;;;;1.80;0.63;;;;;;;;;;5053389;28;20051;-63
2022/08/06 13:18:09;;;;;;;1.65;0.70;;;;;;;;;;5051510;28;20485;-63
2022/08/06 13:20:39;;;;;;;1.50;0.80;;;;;;;;;;5053777;28;20108;-61
2022/08/06 13:23:05;;;;;;;1.95;0.80;;;;;;;;;;5034592;28;20113;-62
2022/08/06 13:25:41;;;;;;;1.15;0.63;;;;;;;;;;5048196;28;20131;-62
2022/08/06 13:28:17;;;;;;;1.05;0.70;;;;;;;;;;5038802;28;20044;-62
2022/08/06 13:30:43;;;;;;;3.80;0.80;;;;;;;;;;5052446;28;20043;-63
2022/08/06 13:33:16;;;;;;;1.10;0.60;;;;;;;;;;5051766;28;20065;-62
2022/08/06 13:35:47;;;;;;;2.15;0.90;;;;;;;;;;5034190;28;20086;-62
2022/08/06 13:38:35;;;;;;;1.13;0.80;;;;;;;;;;5031961;28;20625;-63
2022/08/06 13:41:02;;;;;;;1.10;0.80;;;;;;;;;;5031596;28;20033;-62
2022/08/06 13:43:43;;;;;;;1.95;0.70;;;;;;;;;;5032988;28;20034;-63
2022/08/06 13:46:14;;;;;;;1.40;0.80;;;;;;;;;;5034233;28;20037;-62
2022/08/06 13:49:07;;;;;;;2.15;0.70;;;;;;;;;;5033417;28;20037;-62
2022/08/06 13:51:32;;;;;;;1.27;0.70;;;;;;;;;;5034242;28;20033;-62
2022/08/06 13:53:58;;;;;;;2.25;0.90;;;;;;;;;;5048632;28;20037;-62
2022/08/06 13:56:24;;;;;;;1.92;0.60;;;;;;;;;;5048303;28;20413;-62
2022/08/06 13:58:49;;;;;;;1.67;0.68;;;;;;;;;;5052595;28;20037;-62
2022/08/06 14:01:14;;;;;;;1.45;0.98;;;;;;;;;;5050033;28;20302;-62
2022/08/06 14:03:40;;;;;;;1.58;0.70;;;;;;;;;;5031366;28;20044;-63
2022/08/06 14:06:06;;;;;;;3.08;0.80;;;;;;;;;;5025433;28;20537;-62
2022/08/06 14:08:31;;;;;;;3.35;0.80;;;;;;;;;;5044864;28;20168;-62
2022/08/06 14:10:57;;;;;;;1.10;0.80;;;;;;;;;;5046760;28;20476;-63
2022/08/06 14:13:22;;;;;;;2.47;0.85;;;;;;;;;;5035020;28;20120;-62
2022/08/06 14:15:49;;;;;;;1.35;0.93;;;;;;;;;;5051893;28;20072;-62
2022/08/06 14:18:17;;;;;;;2.90;1.10;;;;;;;;;;5045974;28;20676;-62
2022/08/06 14:20:42;;;;;;;1.10;0.80;;;;;;;;;;5052130;28;20466;-62
2022/08/06 14:23:09;;;;;;;3.28;1.10;;;;;;;;;;5049436;28;20040;-62
2022/08/06 14:25:34;;;;;;;4.43;0.80;;;;;;;;;;5051165;28;20053;-62
2022/08/06 14:28:00;;;;;;;6.65;0.95;;;;;;;;;;5031641;28;20060;-62
2022/08/06 14:30:27;;;;;;;3.38;0.80;;;;;;;;;;5043771;28;20471;-62
2022/08/06 14:32:53;;;;;;;1.33;0.80;;;;;;;;;;5042774;28;20025;-69
2022/08/06 14:35:18;;;;;;;2.47;0.70;;;;;;;;;;5041798;28;20103;-68
2022/08/06 14:37:44;;;;;;;1.55;0.73;;;;;;;;;;5051379;28;20059;-69
2022/08/06 14:40:11;;;;;;;1.80;0.80;;;;;;;;;;5044585;28;20480;-66
2022/08/06 14:45:21;;;;;;;1.30;0.70;;;;;;;;;;5049326;28;20055;-69
2022/08/06 14:47:47;;;;;;;0.88;0.70;;;;;;;;;;5032927;28;20037;-67
2022/08/06 14:50:12;;;;;;;0.95;0.60;;;;;;;;;;5046604;28;20040;-67
2022/08/06 14:52:40;;;;;;;3.88;0.80;;;;;;;;;;5042809;28;20033;-68
2022/08/06 14:55:06;;;;;;;0.60;0.60;;;;;;;;;;5044602;28;20059;-66
2022/08/06 14:57:32;;;;;;;3.88;0.80;;;;;;;;;;5034363;28;20041;-66
2022/08/06 14:59:57;;;;;;;4.57;0.80;;;;;;;;;;5048719;28;20033;-66
2022/08/06 15:02:26;;;;;;;0.75;0.50;;;;;;;;;;5031709;28;20021;-68
2022/08/06 15:04:52;;;;;;;2.03;0.73;;;;;;;;;;5030870;28;20474;-68
2022/08/06 15:07:18;;;;;;;2.53;0.63;;;;;;;;;;5030518;28;20271;-73